createdAt,value
2019-05-30T00:00:05.753Z,0.90
2019-05-30T00:02:39.151Z,0.80
2019-05-30T00:05:25.791Z,1.00
2019-05-30T00:08:11.841Z,1.10
2019-05-30T00:10:58.534Z,0.90
2019-05-30T00:13:44.771Z,0.80
2019-05-30T00:16:30.745Z,1.27
2019-05-30T00:19:16.895Z,1.00
2019-05-30T00:22:03.946Z,0.60
2019-05-30T00:24:51.220Z,0.87
2019-05-30T00:27:37.512Z,0.50
2019-05-30T00:30:26.382Z,0.80
2019-05-30T00:33:12.655Z,1.00
2019-05-30T00:35:59.946Z,1.10
2019-05-30T00:38:46.210Z,1.00
2019-05-30T00:41:32.461Z,0.80
2019-05-30T00:44:18.476Z,1.40
2019-05-30T00:47:04.746Z,1.00
2019-05-30T00:49:51.250Z,1.03
2019-05-30T00:52:37.676Z,1.00
2019-05-30T00:55:23.640Z,0.90
2019-05-30T00:58:09.792Z,0.70
2019-05-30T01:00:59.048Z,0.90
2019-05-30T01:03:45.350Z,1.23
2019-05-30T01:06:31.481Z,1.00
2019-05-30T01:09:17.736Z,1.37
2019-05-30T01:12:05.300Z,1.00
2019-05-30T01:14:51.714Z,1.03
2019-05-30T01:17:39.179Z,1.50
2019-05-30T01:20:25.593Z,1.00
2019-05-30T01:23:11.601Z,0.97
2019-05-30T01:25:59.218Z,1.27
2019-05-30T01:28:45.776Z,1.10
2019-05-30T01:31:31.860Z,1.30
2019-05-30T01:34:18.008Z,0.97
2019-05-30T01:37:04.176Z,1.30
2019-05-30T01:39:50.261Z,1.00
2019-05-30T01:42:36.457Z,1.20
2019-05-30T01:45:22.400Z,1.00
2019-05-30T01:48:08.674Z,1.23
2019-05-30T01:50:55.260Z,1.27
2019-05-30T01:53:41.480Z,1.40
2019-05-30T01:56:27.716Z,1.17
2019-05-30T01:59:13.995Z,1.27
2019-05-30T02:02:00.916Z,1.30
2019-05-30T02:04:47.476Z,1.40
2019-05-30T02:07:33.896Z,1.40
2019-05-30T02:10:19.888Z,1.67
2019-05-30T02:13:06.007Z,1.20
2019-05-30T02:15:52.216Z,1.30
2019-05-30T02:18:38.357Z,1.57
2019-05-30T02:21:24.632Z,1.90
2019-05-30T02:24:12.155Z,1.40
2019-05-30T02:27:00.006Z,1.90
2019-05-30T02:29:46.665Z,1.80
2019-05-30T02:32:32.826Z,1.70
2019-05-30T02:35:18.955Z,1.53
2019-05-30T02:38:05.422Z,1.87
2019-05-30T02:40:53.146Z,1.67
2019-05-30T02:43:39.374Z,2.17
2019-05-30T02:46:25.555Z,2.00
2019-05-30T02:49:13.846Z,1.97
2019-05-30T02:51:59.886Z,2.20
2019-05-30T02:54:46.127Z,1.73
2019-05-30T02:57:32.442Z,1.97
2019-05-30T03:00:24.868Z,2.20
2019-05-30T03:03:13.914Z,2.57
2019-05-30T03:05:58.766Z,2.20
2019-05-30T03:08:45.237Z,2.30
2019-05-30T03:11:31.088Z,2.60
2019-05-30T03:14:19.710Z,2.67
2019-05-30T03:17:07.826Z,2.40
2019-05-30T03:19:53.928Z,2.53
2019-05-30T03:22:40.082Z,2.57
2019-05-30T03:25:26.280Z,2.73
2019-05-30T03:28:13.652Z,2.80
2019-05-30T03:30:59.837Z,2.90
2019-05-30T03:33:46.177Z,3.00
2019-05-30T03:36:32.335Z,2.70
2019-05-30T03:39:18.312Z,2.60
2019-05-30T03:42:06.762Z,2.97
2019-05-30T03:44:52.681Z,2.90
2019-05-30T03:47:41.110Z,2.97
2019-05-30T03:50:29.330Z,3.40
2019-05-30T03:53:16.345Z,3.50
2019-05-30T03:56:09.032Z,3.23
2019-05-30T03:59:14.817Z,2.83
2019-05-30T04:02:19.843Z,3.20
2019-05-30T04:05:07.537Z,3.97
2019-05-30T04:07:55.666Z,3.17
2019-05-30T04:10:43.098Z,3.00
2019-05-30T04:13:43.761Z,3.33
2019-05-30T04:16:30.163Z,3.13
2019-05-30T04:19:17.735Z,3.07
2019-05-30T04:22:04.371Z,3.40
2019-05-30T04:24:50.716Z,2.93
2019-05-30T04:27:36.898Z,3.67
2019-05-30T04:30:23.085Z,3.80
2019-05-30T04:33:22.528Z,2.90
2019-05-30T04:35:57.551Z,3.80
2019-05-30T04:38:43.717Z,3.10
2019-05-30T04:41:30.003Z,4.03
2019-05-30T04:44:17.929Z,4.10
2019-05-30T04:47:04.176Z,3.07
2019-05-30T04:49:50.667Z,3.57
2019-05-30T04:52:36.600Z,3.20
2019-05-30T04:55:23.225Z,3.20
2019-05-30T04:58:11.004Z,3.37
2019-05-30T05:00:57.821Z,3.67
2019-05-30T05:03:46.525Z,3.80
2019-05-30T05:06:31.987Z,3.40
2019-05-30T05:09:20.120Z,3.40
2019-05-30T05:12:06.516Z,3.27
2019-05-30T05:14:52.621Z,3.30
2019-05-30T05:17:39.091Z,3.47
2019-05-30T05:20:26.616Z,3.40
2019-05-30T05:23:13.060Z,3.10
2019-05-30T05:26:01.316Z,3.40
2019-05-30T05:28:47.796Z,3.23
2019-05-30T05:31:33.806Z,3.33
2019-05-30T05:34:21.351Z,3.07
2019-05-30T05:37:07.445Z,3.40
2019-05-30T05:39:53.720Z,2.90
2019-05-30T05:42:39.990Z,3.30
2019-05-30T05:45:26.155Z,2.90
2019-05-30T05:48:12.310Z,3.47
2019-05-30T05:50:58.840Z,3.90
2019-05-30T05:53:44.975Z,4.37
2019-05-30T05:56:31.174Z,3.10
2019-05-30T05:59:18.851Z,3.10
2019-05-30T06:02:07.322Z,3.30
2019-05-30T06:04:53.508Z,3.57
2019-05-30T06:07:39.670Z,3.63
2019-05-30T06:10:25.872Z,3.20
2019-05-30T06:13:11.828Z,3.07
2019-05-30T06:15:58.031Z,3.13
2019-05-30T06:18:44.035Z,3.00
2019-05-30T06:21:30.331Z,3.03
2019-05-30T06:24:17.645Z,2.80
2019-05-30T06:27:04.001Z,2.60
2019-05-30T06:29:50.353Z,2.70
2019-05-30T06:32:36.281Z,2.47
2019-05-30T06:35:23.001Z,2.80
2019-05-30T06:38:09.380Z,3.00
2019-05-30T06:40:55.250Z,2.53
2019-05-30T06:43:41.291Z,2.83
2019-05-30T06:46:28.394Z,2.70
2019-05-30T06:49:15.066Z,2.90
2019-05-30T06:52:01.279Z,2.70
2019-05-30T06:54:47.477Z,2.37
2019-05-30T06:57:33.481Z,2.50
2019-05-30T07:00:21.732Z,2.53
2019-05-30T07:03:07.995Z,2.70
2019-05-30T07:05:54.470Z,2.47
2019-05-30T07:08:41.006Z,2.60
2019-05-30T07:11:27.256Z,1.90
2019-05-30T07:14:13.330Z,3.83
2019-05-30T07:16:59.381Z,3.13
2019-05-30T07:19:45.545Z,2.23
2019-05-30T07:22:31.910Z,2.90
2019-05-30T07:25:18.412Z,2.80
2019-05-30T07:28:04.911Z,2.30
2019-05-30T07:30:50.975Z,2.43
2019-05-30T07:33:37.147Z,2.40
2019-05-30T07:36:24.076Z,2.53
2019-05-30T07:39:10.471Z,2.70
2019-05-30T07:42:06.143Z,2.30
2019-05-30T07:44:45.046Z,2.70
2019-05-30T07:47:32.155Z,2.60
2019-05-30T07:50:19.442Z,2.57
2019-05-30T07:53:05.683Z,2.13
2019-05-30T07:55:51.869Z,2.80
2019-05-30T07:58:37.980Z,2.80
2019-05-30T08:01:24.095Z,2.57
2019-05-30T08:04:10.291Z,2.70
2019-05-30T08:06:56.535Z,2.70
2019-05-30T08:09:42.717Z,2.57
2019-05-30T08:12:30.078Z,2.60
2019-05-30T08:15:16.436Z,2.20
2019-05-30T08:18:02.722Z,2.43
2019-05-30T08:20:48.875Z,3.20
2019-05-30T08:23:36.217Z,2.40
2019-05-30T08:26:22.751Z,2.20
2019-05-30T08:29:08.660Z,2.40
2019-05-30T08:31:54.916Z,2.33
2019-05-30T08:34:41.065Z,2.87
2019-05-30T08:37:27.161Z,2.17
2019-05-30T08:40:13.947Z,2.43
2019-05-30T08:43:00.105Z,2.87
2019-05-30T08:45:46.412Z,2.63
2019-05-30T08:48:33.288Z,2.93
2019-05-30T08:51:20.910Z,2.20
2019-05-30T08:54:07.087Z,2.60
2019-05-30T08:56:53.316Z,2.83
2019-05-30T08:59:40.643Z,2.50
2019-05-30T09:02:27.054Z,2.30
2019-05-30T09:05:14.643Z,2.57
2019-05-30T09:08:00.757Z,2.57
2019-05-30T09:10:46.798Z,2.90
2019-05-30T09:13:33.295Z,2.60
2019-05-30T09:16:19.096Z,2.30
2019-05-30T09:19:05.268Z,2.70
2019-05-30T09:21:52.337Z,2.53
2019-05-30T09:24:39.153Z,2.60
2019-05-30T09:27:26.661Z,2.33
2019-05-30T09:30:13.351Z,2.50
2019-05-30T09:32:59.150Z,2.23
2019-05-30T09:35:45.246Z,2.00
2019-05-30T09:38:31.432Z,2.30
2019-05-30T09:41:17.550Z,2.40
2019-05-30T09:44:04.880Z,2.43
2019-05-30T09:46:50.676Z,1.90
2019-05-30T09:49:36.910Z,2.00
2019-05-30T09:52:23.101Z,2.03
2019-05-30T09:55:09.631Z,1.80
2019-05-30T09:57:55.751Z,1.80
2019-05-30T10:00:43.469Z,1.77
2019-05-30T10:03:30.302Z,2.10
2019-05-30T10:06:28.444Z,1.53
2019-05-30T10:09:07.173Z,2.03
2019-05-30T10:11:53.550Z,1.90
2019-05-30T10:14:39.886Z,1.80
2019-05-30T10:17:26.057Z,1.90
2019-05-30T10:20:13.747Z,3.37
2019-05-30T10:23:03.312Z,3.77
2019-05-30T10:25:48.406Z,2.03
2019-05-30T10:28:35.616Z,2.57
2019-05-30T10:31:21.796Z,1.90
2019-05-30T10:34:07.786Z,1.90
2019-05-30T10:36:54.239Z,2.03
2019-05-30T10:39:40.379Z,1.70
2019-05-30T10:42:26.663Z,2.10
2019-05-30T10:45:13.520Z,2.67
2019-05-30T10:47:59.960Z,3.57
2019-05-30T10:50:48.268Z,2.90
2019-05-30T10:53:37.482Z,2.30
2019-05-30T10:56:22.719Z,2.80
2019-05-30T10:59:08.741Z,2.13
2019-05-30T11:01:54.919Z,2.73
2019-05-30T11:04:41.049Z,2.30
2019-05-30T11:08:03.856Z,2.73
2019-05-30T11:10:43.622Z,2.20
2019-05-30T11:13:29.667Z,2.30
2019-05-30T11:16:16.006Z,1.93
2019-05-30T11:19:07.228Z,2.40
2019-05-30T11:21:50.260Z,1.77
2019-05-30T11:24:36.460Z,2.50
2019-05-30T11:27:22.780Z,2.47
2019-05-30T11:30:09.420Z,2.50
2019-05-30T11:32:55.380Z,3.77
2019-05-30T11:35:41.480Z,3.63
2019-05-30T11:38:27.919Z,3.73
2019-05-30T11:41:16.399Z,3.20
2019-05-30T11:44:04.200Z,2.37
2019-05-30T11:46:51.820Z,2.40
2019-05-30T11:49:38.889Z,2.37
2019-05-30T11:52:25.361Z,2.40
2019-05-30T11:55:12.380Z,2.07
2019-05-30T11:57:58.523Z,2.50
2019-05-30T12:00:45.321Z,2.00
2019-05-30T12:03:31.597Z,2.30
2019-05-30T12:06:18.040Z,2.50
2019-05-30T12:09:06.809Z,2.40
2019-05-30T12:11:53.181Z,2.20
2019-05-30T12:14:39.621Z,2.00
2019-05-30T12:17:25.820Z,2.03
2019-05-30T12:20:12.360Z,3.00
2019-05-30T12:22:58.480Z,3.60
2019-05-30T12:25:44.879Z,2.67
2019-05-30T12:28:30.800Z,3.13
2019-05-30T12:31:16.959Z,2.40
2019-05-30T12:34:03.679Z,2.90
2019-05-30T12:36:49.840Z,3.67
2019-05-30T12:39:36.341Z,3.60
2019-05-30T12:42:22.439Z,4.90
2019-05-30T12:45:09.302Z,3.77
2019-05-30T12:47:55.259Z,3.80
2019-05-30T12:50:41.542Z,4.77
2019-05-30T12:53:27.665Z,4.57
2019-05-30T12:56:13.947Z,3.60
2019-05-30T12:59:01.098Z,4.83
2019-05-30T13:01:47.653Z,4.80
2019-05-30T13:04:33.977Z,3.80
2019-05-30T13:07:19.934Z,3.63
2019-05-30T13:10:07.914Z,3.83
2019-05-30T13:12:53.792Z,4.30
2019-05-30T13:15:40.027Z,3.73
2019-05-30T13:18:26.147Z,4.03
2019-05-30T13:21:12.402Z,3.93
2019-05-30T13:23:59.578Z,3.70
2019-05-30T13:26:45.548Z,4.10
2019-05-30T13:29:32.013Z,4.37
2019-05-30T13:32:17.872Z,3.63
2019-05-30T13:35:05.423Z,4.23
2019-05-30T13:37:51.847Z,3.80
2019-05-30T13:40:38.117Z,4.13
2019-05-30T13:43:27.748Z,3.80
2019-05-30T13:46:12.917Z,4.27
2019-05-30T13:49:00.825Z,4.30
2019-05-30T13:51:47.577Z,4.07
2019-05-30T13:54:33.547Z,4.23
2019-05-30T13:57:19.577Z,4.53
2019-05-30T14:00:08.138Z,4.40
2019-05-30T14:02:54.589Z,4.23
2019-05-30T14:05:41.018Z,3.80
2019-05-30T14:08:40.780Z,4.33
2019-05-30T14:11:16.307Z,4.70
2019-05-30T14:14:02.800Z,4.43
2019-05-30T14:16:49.126Z,4.30
2019-05-30T14:19:36.345Z,5.10
2019-05-30T14:22:22.643Z,4.57
2019-05-30T14:25:09.775Z,4.83
2019-05-30T14:27:55.732Z,4.83
2019-05-30T14:30:43.042Z,5.23
2019-05-30T14:33:29.262Z,4.70
2019-05-30T14:36:15.441Z,5.07
2019-05-30T14:39:02.600Z,5.37
2019-05-30T14:41:49.147Z,5.23
2019-05-30T14:44:35.317Z,4.70
2019-05-30T14:47:21.788Z,5.57
2019-05-30T14:50:08.993Z,5.40
2019-05-30T14:52:55.223Z,5.90
2019-05-30T14:55:41.532Z,5.40
2019-05-30T14:58:27.675Z,5.50
2019-05-30T15:01:13.962Z,6.07
2019-05-30T15:03:59.952Z,6.23
2019-05-30T15:06:46.131Z,6.33
2019-05-30T15:09:32.358Z,6.13
2019-05-30T15:12:18.487Z,6.67
2019-05-30T15:15:07.333Z,7.30
2019-05-30T15:17:53.085Z,7.67
2019-05-30T15:20:39.053Z,6.13
2019-05-30T15:23:25.208Z,6.13
2019-05-30T15:26:12.124Z,6.50
2019-05-30T15:28:58.253Z,6.70
2019-05-30T15:31:44.442Z,6.10
2019-05-30T15:34:30.912Z,5.77
2019-05-30T15:37:17.107Z,6.10
2019-05-30T15:40:03.242Z,6.73
2019-05-30T15:42:53.060Z,6.23
2019-05-30T15:45:38.024Z,6.57
2019-05-30T15:48:24.142Z,6.30
2019-05-30T15:51:10.611Z,6.27
2019-05-30T15:53:56.698Z,6.60
2019-05-30T15:56:42.987Z,6.17
2019-05-30T15:59:29.313Z,6.43
2019-05-30T16:02:16.114Z,5.97
2019-05-30T16:05:04.497Z,5.67
2019-05-30T16:07:50.913Z,5.73
2019-05-30T16:10:37.208Z,6.30
2019-05-30T16:13:23.432Z,5.50
2019-05-30T16:16:09.808Z,6.30
2019-05-30T16:18:56.014Z,6.20
2019-05-30T16:21:42.113Z,6.23
2019-05-30T16:24:29.477Z,6.00
2019-05-30T16:27:15.855Z,6.50
2019-05-30T16:30:02.813Z,6.70
2019-05-30T16:32:49.767Z,6.40
2019-05-30T16:35:35.708Z,6.27
2019-05-30T16:38:22.248Z,6.73
2019-05-30T16:41:08.167Z,6.67
2019-05-30T16:43:54.143Z,6.30
2019-05-30T16:46:40.374Z,6.50
2019-05-30T16:49:26.946Z,6.37
2019-05-30T16:52:13.061Z,6.40
2019-05-30T16:54:59.342Z,6.70
2019-05-30T16:57:45.448Z,6.40
2019-05-30T17:00:31.549Z,6.20
2019-05-30T17:03:17.844Z,6.13
2019-05-30T17:06:04.157Z,6.23
2019-05-30T17:08:50.138Z,5.70
2019-05-30T17:11:36.238Z,6.13
2019-05-30T17:14:22.462Z,6.13
2019-05-30T17:17:08.654Z,6.23
2019-05-30T17:19:54.738Z,6.60
2019-05-30T17:22:40.912Z,6.13
2019-05-30T17:25:27.259Z,6.47
2019-05-30T17:28:14.993Z,6.60
2019-05-30T17:31:01.297Z,6.57
2019-05-30T17:33:47.662Z,5.87
2019-05-30T17:36:33.802Z,5.87
2019-05-30T17:39:20.418Z,5.70
2019-05-30T17:42:06.645Z,5.50
2019-05-30T17:44:52.772Z,5.53
2019-05-30T17:47:38.893Z,5.30
2019-05-30T17:50:25.814Z,5.87
2019-05-30T17:53:12.337Z,5.40
2019-05-30T17:55:59.474Z,5.77
2019-05-30T17:58:46.293Z,5.70
2019-05-30T18:01:32.167Z,6.53
2019-05-30T18:04:18.348Z,6.20
2019-05-30T18:07:04.797Z,6.07
2019-05-30T18:09:50.817Z,5.67
2019-05-30T18:12:37.033Z,6.20
2019-05-30T18:15:26.266Z,6.40
2019-05-30T18:18:11.502Z,6.37
2019-05-30T18:20:57.653Z,6.53
2019-05-30T18:23:44.840Z,6.50
2019-05-30T18:26:31.861Z,7.17
2019-05-30T18:29:19.055Z,6.67
2019-05-30T18:32:05.512Z,6.87
2019-05-30T18:34:51.599Z,6.60
2019-05-30T18:37:38.090Z,6.20
2019-05-30T18:40:33.268Z,6.70
2019-05-30T18:43:19.598Z,6.77
2019-05-30T18:46:05.774Z,6.83
2019-05-30T18:48:51.853Z,7.70
2019-05-30T18:51:38.062Z,7.13
2019-05-30T18:54:24.419Z,7.50
2019-05-30T18:57:11.083Z,7.17
2019-05-30T18:59:57.205Z,7.77
2019-05-30T19:02:43.178Z,8.10
2019-05-30T19:05:30.413Z,7.13
2019-05-30T19:08:17.033Z,8.47
2019-05-30T19:11:03.377Z,8.17
2019-05-30T19:13:50.137Z,8.07
2019-05-30T19:16:37.085Z,8.67
2019-05-30T19:19:23.225Z,8.07
2019-05-30T19:22:09.408Z,8.20
2019-05-30T19:24:56.463Z,9.13
2019-05-30T19:27:42.758Z,8.80
2019-05-30T19:30:29.107Z,8.77
2019-05-30T19:33:15.527Z,8.83
2019-05-30T19:36:01.774Z,8.37
2019-05-30T19:38:47.817Z,8.37
2019-05-30T19:41:45.932Z,8.10
2019-05-30T19:44:22.232Z,7.73
2019-05-30T19:47:08.358Z,7.53
2019-05-30T19:49:54.593Z,8.63
2019-05-30T19:52:41.208Z,8.90
2019-05-30T19:55:27.440Z,9.70
2019-05-30T19:58:14.514Z,8.97
2019-05-30T20:01:00.557Z,9.57
2019-05-30T20:03:47.181Z,9.67
2019-05-30T20:06:34.591Z,9.33
2019-05-30T20:09:21.167Z,9.53
2019-05-30T20:12:08.935Z,9.00
2019-05-30T20:14:55.563Z,8.40
2019-05-30T20:17:42.015Z,8.87
2019-05-30T20:20:28.303Z,8.80
2019-05-30T20:23:14.402Z,8.63
2019-05-30T20:26:00.527Z,8.33
2019-05-30T20:28:46.762Z,8.50
2019-05-30T20:31:33.317Z,8.93
2019-05-30T20:34:19.330Z,8.57
2019-05-30T20:37:05.604Z,8.50
2019-05-30T20:39:51.622Z,8.87
2019-05-30T20:42:38.879Z,7.50
2019-05-30T20:45:25.472Z,7.97
2019-05-30T20:48:11.473Z,8.53
2019-05-30T20:50:57.607Z,7.73
2019-05-30T20:53:43.906Z,9.23
2019-05-30T20:56:30.037Z,8.63
2019-05-30T20:59:16.033Z,8.43
2019-05-30T21:02:02.283Z,8.63
2019-05-30T21:04:48.478Z,8.03
2019-05-30T21:07:35.865Z,8.27
2019-05-30T21:10:22.428Z,7.87
2019-05-30T21:13:08.412Z,9.07
2019-05-30T21:15:56.063Z,8.53
2019-05-30T21:18:45.937Z,8.33
2019-05-30T21:21:32.214Z,7.83
2019-05-30T21:24:18.307Z,7.80
2019-05-30T21:27:04.834Z,8.23
2019-05-30T21:29:50.684Z,8.70
2019-05-30T21:32:37.669Z,8.87
2019-05-30T21:35:24.982Z,8.00
2019-05-30T21:38:11.013Z,7.00
2019-05-30T21:40:57.162Z,7.73
2019-05-30T21:43:44.475Z,7.53
2019-05-30T21:46:31.525Z,7.70
2019-05-30T21:49:17.812Z,7.80
2019-05-30T21:52:04.138Z,7.50
2019-05-30T21:54:50.307Z,8.00
2019-05-30T21:57:39.767Z,7.90
2019-05-30T22:01:00.456Z,7.60
2019-05-30T22:03:47.072Z,7.73
2019-05-30T22:06:33.232Z,8.40
2019-05-30T22:09:19.257Z,7.77
2019-05-30T22:12:05.562Z,7.70
2019-05-30T22:14:51.979Z,7.90
2019-05-30T22:17:38.392Z,7.50
2019-05-30T22:20:24.659Z,7.80
2019-05-30T22:23:11.178Z,7.87
2019-05-30T22:25:57.540Z,8.03
2019-05-30T22:28:44.367Z,7.70
2019-05-30T22:31:30.892Z,7.97
2019-05-30T22:34:18.027Z,7.40
2019-05-30T22:37:04.214Z,8.00
2019-05-30T22:39:51.014Z,7.40
2019-05-30T22:42:37.352Z,7.70
2019-05-30T22:45:23.380Z,7.80
2019-05-30T22:48:09.513Z,7.63
2019-05-30T22:50:56.940Z,8.07
2019-05-30T22:53:43.344Z,7.87
2019-05-30T22:56:29.367Z,8.23
2019-05-30T22:59:15.798Z,7.50
2019-05-30T23:04:42.892Z,7.90
2019-05-30T23:07:29.970Z,7.70
2019-05-30T23:10:16.854Z,7.70
2019-05-30T23:13:03.330Z,7.37
2019-05-30T23:15:50.084Z,7.80
2019-05-30T23:18:36.547Z,7.77
2019-05-30T23:21:22.814Z,8.10
2019-05-30T23:24:09.092Z,8.23
2019-05-30T23:26:55.878Z,8.03
2019-05-30T23:29:42.272Z,8.50
2019-05-30T23:32:28.736Z,8.73
2019-05-30T23:35:15.242Z,7.87
2019-05-30T23:38:01.769Z,7.77
2019-05-30T23:40:48.935Z,8.47
2019-05-30T23:43:36.685Z,7.90
2019-05-30T23:46:23.262Z,7.93
